Foumban Nkounja Airport


Codes: FKKM/FOM
Name: Foumban Nkounja Airport
City: Foumban
Country: Cameroon
Elevation: 3963 ft.

Photos at Foumban Nkounja Airport


   Photos courtesy of SpottingLog. You can add your own sightings and photos by signing up for a free trial today.



No photos found.

Weather at Foumban Nkounja Airport


Time (UTC)DescriptionTempratureWindCloud coverageVisibilityPressureHumidity
17-Jun-2024 06:00Overcast Clouds16°C2 mph, NW100%10000m1015hPa96%
17-Jun-2024 09:00Overcast Clouds19°C0 mph, NW100%10000m1016hPa91%
17-Jun-2024 12:00Overcast Clouds21°C2 mph, E100%10000m1014hPa81%
17-Jun-2024 15:00Light Rain24°C4 mph, E42%10000m1012hPa73%
17-Jun-2024 18:00Light Rain19°C2 mph, SW50%10000m1013hPa93%
17-Jun-2024 21:00Light Rain18°C2 mph, NW82%10000m1015hPa94%
18-Jun-2024 00:00Scattered Clouds17°C2 mph, NW48%10000m1014hPa96%
18-Jun-2024 03:00Light Rain17°C2 mph, NW84%10000m1014hPa96%
18-Jun-2024 06:00Light Rain18°C2 mph, NW92%10000m1015hPa95%
18-Jun-2024 09:00Light Rain22°C2 mph, E100%5529m1016hPa87%
18-Jun-2024 12:00Moderate Rain23°C4 mph, NE93%10000m1013hPa81%
18-Jun-2024 15:00Light Rain23°C2 mph, E100%10000m1012hPa82%
18-Jun-2024 18:00Light Rain19°C2 mph, E93%10000m1013hPa94%
18-Jun-2024 21:00Light Rain18°C2 mph, NE98%10000m1015hPa94%
19-Jun-2024 00:00Overcast Clouds17°C4 mph, W98%10000m1013hPa96%
19-Jun-2024 03:00Overcast Clouds17°C4 mph, NW97%10000m1013hPa96%
19-Jun-2024 06:00Overcast Clouds18°C2 mph, W98%10000m1014hPa95%
19-Jun-2024 09:00Light Rain22°C0 mph, SE99%10000m1015hPa83%
19-Jun-2024 12:00Moderate Rain24°C2 mph, SE100%10000m1013hPa75%
19-Jun-2024 15:00Light Rain23°C2 mph, E100%10000m1012hPa86%
19-Jun-2024 18:00Light Rain19°C4 mph, NE100%10000m1014hPa93%
19-Jun-2024 21:00Light Rain18°C2 mph, SW100%10000m1014hPa94%
20-Jun-2024 00:00Overcast Clouds18°C2 mph, NW100%10000m1014hPa94%
20-Jun-2024 03:00Overcast Clouds17°C2 mph, NW100%10000m1013hPa95%
20-Jun-2024 06:00Overcast Clouds18°C2 mph, NW100%10000m1014hPa94%
20-Jun-2024 09:00Light Rain23°C2 mph, E100%10000m1015hPa77%
20-Jun-2024 12:00Light Rain25°C4 mph, SE82%10000m1012hPa71%
20-Jun-2024 15:00Light Rain24°C2 mph, E41%5423m1011hPa80%
20-Jun-2024 18:00Light Rain19°C0 mph, S61%10000m1013hPa93%
20-Jun-2024 21:00Light Rain18°C2 mph, NW66%10000m1015hPa95%
21-Jun-2024 00:00Light Rain17°C2 mph, NW71%10000m1015hPa95%
21-Jun-2024 03:00Scattered Clouds17°C2 mph, NW34%10000m1014hPa97%
21-Jun-2024 06:00Broken Clouds18°C2 mph, NW51%10000m1016hPa95%
21-Jun-2024 09:00Light Rain23°C2 mph, SE71%10000m1016hPa81%
21-Jun-2024 12:00Light Rain25°C4 mph, SE67%10000m1013hPa73%
21-Jun-2024 15:00Moderate Rain24°C2 mph, SE100%10000m1011hPa80%
21-Jun-2024 18:00Moderate Rain19°C0 mph, E99%10000m1013hPa91%
21-Jun-2024 21:00Light Rain18°C2 mph, NW100%10000m1015hPa95%
22-Jun-2024 00:00Light Rain17°C2 mph, NW100%10000m1015hPa97%
22-Jun-2024 03:00Light Rain17°C2 mph, NW100%10000m1014hPa97%